Time;durP1;ratioP1;P1;durP2;ratioP2;P2;SDS_P1;SDS_P2;PMS_P1;PMS_P2;Temp;Humidity;BMP_temperature;BMP_pressure;BME280_temperature;BME280_humidity;BME280_pressure;Samples;Min_cycle;Max_cycle;Signal;HPM_P1;HPM_P2
2023/04/12 00:01:00;;;;;;;7.10;1.42;;;8.20;99.90;;;;;;4899344;29;20063;-81
2023/04/12 00:03:27;;;;;;;13.75;2.05;;;8.20;99.90;;;;;;4907342;29;20048;-82
2023/04/12 00:05:54;;;;;;;14.48;1.50;;;8.20;99.90;;;;;;4899697;29;20049;-81
2023/04/12 00:08:31;;;;;;;10.50;2.08;;;8.20;99.90;;;;;;4878873;29;20551;-82
2023/04/12 00:10:59;;;;;;;19.90;2.17;;;8.10;99.90;;;;;;4877889;29;20045;-81
2023/04/12 00:13:25;;;;;;;10.20;1.52;;;8.10;99.90;;;;;;4879276;29;20044;-80
2023/04/12 00:15:52;;;;;;;9.52;2.22;;;8.10;99.90;;;;;;4879901;29;20385;-82
2023/04/12 00:18:23;;;;;;;9.48;1.58;;;8.10;99.90;;;;;;4880015;29;20049;-83
2023/04/12 00:20:51;;;;;;;9.38;1.48;;;8.10;99.90;;;;;;4878933;29;20053;-81
2023/04/12 00:23:17;;;;;;;6.50;1.67;;;8.10;99.90;;;;;;4879893;29;20048;-81
2023/04/12 00:25:44;;;;;;;10.32;2.00;;;8.10;99.90;;;;;;4880625;29;20052;-81
2023/04/12 00:28:11;;;;;;;13.63;1.58;;;8.10;99.90;;;;;;4878569;29;20037;-81
2023/04/12 00:30:40;;;;;;;12.13;1.70;;;8.00;99.90;;;;;;4880753;29;20041;-81
2023/04/12 00:33:06;;;;;;;19.33;2.35;;;8.00;99.90;;;;;;4878649;29;20044;-81
2023/04/12 00:35:33;;;;;;;12.13;1.95;;;8.00;99.90;;;;;;4863900;29;20057;-81
2023/04/12 00:38:01;;;;;;;14.15;1.88;;;8.00;99.90;;;;;;4879466;29;20381;-82
2023/04/12 00:40:28;;;;;;;11.95;1.98;;;8.00;99.90;;;;;;4893584;29;20048;-82
2023/04/12 00:42:56;;;;;;;8.65;1.60;;;8.00;99.90;;;;;;4897871;29;20060;-80
2023/04/12 00:45:22;;;;;;;17.08;1.92;;;8.00;99.90;;;;;;4913992;29;20068;-81
2023/04/12 00:47:49;;;;;;;18.35;2.17;;;8.00;99.90;;;;;;4913089;29;20044;-82
2023/04/12 00:50:16;;;;;;;10.02;1.58;;;8.00;99.90;;;;;;4897847;29;20045;-82
2023/04/12 00:52:43;;;;;;;13.85;2.08;;;8.00;99.90;;;;;;4912728;29;20054;-80
2023/04/12 00:55:09;;;;;;;16.42;1.73;;;8.00;99.90;;;;;;4913774;29;20143;-81
2023/04/12 00:57:36;;;;;;;14.30;2.33;;;8.00;99.90;;;;;;4899104;29;20049;-81
2023/04/12 01:00:04;;;;;;;12.15;1.77;;;7.90;99.90;;;;;;4897072;29;20055;-80
2023/04/12 01:02:32;;;;;;;14.50;2.28;;;7.90;99.90;;;;;;4913071;29;20459;-82
2023/04/12 01:04:59;;;;;;;12.25;2.15;;;7.80;99.90;;;;;;4913469;29;20052;-80
2023/04/12 01:07:26;;;;;;;15.10;1.88;;;7.80;99.90;;;;;;4912546;29;20051;-80
2023/04/12 01:09:53;;;;;;;16.17;2.67;;;7.80;99.90;;;;;;4913596;29;20056;-80
2023/04/12 01:12:20;;;;;;;10.75;1.90;;;7.80;99.90;;;;;;4898512;29;20115;-83
2023/04/12 01:14:47;;;;;;;5.40;1.67;;;7.80;99.90;;;;;;4898004;29;20041;-82
2023/04/12 01:17:19;;;;;;;20.45;2.55;;;7.80;99.90;;;;;;4897999;29;20148;-82
2023/04/12 01:19:46;;;;;;;17.90;2.08;;;7.80;99.90;;;;;;4912750;29;20127;-84
2023/04/12 01:22:13;;;;;;;21.65;2.50;;;7.90;99.90;;;;;;4912969;29;20045;-82
2023/04/12 01:24:41;;;;;;;12.40;2.15;;;7.90;99.90;;;;;;4898112;29;20048;-82
2023/04/12 01:27:07;;;;;;;16.42;2.58;;;7.90;99.90;;;;;;4912387;29;20040;-84
2023/04/12 01:29:34;;;;;;;15.73;1.90;;;7.90;99.90;;;;;;4913720;29;20087;-82
2023/04/12 01:32:01;;;;;;;20.85;2.90;;;7.90;99.90;;;;;;4898456;29;20068;-81
2023/04/12 01:34:27;;;;;;;16.23;2.28;;;7.90;99.90;;;;;;4912455;29;20146;-82
2023/04/12 01:36:54;;;;;;;24.25;2.47;;;7.80;99.90;;;;;;4897646;29;20116;-81
2023/04/12 01:39:21;;;;;;;13.05;2.20;;;7.80;99.90;;;;;;4898630;29;20047;-82
2023/04/12 01:41:48;;;;;;;21.73;2.63;;;7.80;99.90;;;;;;4913124;29;20139;-82
2023/04/12 01:44:15;;;;;;;14.00;1.85;;;7.80;99.90;;;;;;4913316;29;20148;-81
2023/04/12 01:46:42;;;;;;;16.95;2.78;;;7.80;99.90;;;;;;4899095;29;20383;-83
2023/04/12 01:49:08;;;;;;;22.75;3.05;;;7.80;99.90;;;;;;4917152;29;20059;-82
2023/04/12 01:51:35;;;;;;;17.27;2.40;;;7.80;99.90;;;;;;4916500;29;20040;-82
2023/04/12 01:54:02;;;;;;;17.38;1.95;;;7.70;99.90;;;;;;4900230;29;20049;-82
2023/04/12 01:56:28;;;;;;;15.57;2.38;;;7.70;99.90;;;;;;4917272;29;20472;-82
2023/04/12 01:58:56;;;;;;;14.23;2.13;;;7.70;99.90;;;;;;4916976;29;20052;-83
2023/04/12 02:01:23;;;;;;;15.30;2.10;;;7.70;99.90;;;;;;4900113;29;20139;-82
2023/04/12 02:03:50;;;;;;;20.90;2.92;;;7.70;99.90;;;;;;4900828;29;20405;-82
2023/04/12 02:06:17;;;;;;;9.77;2.17;;;7.80;99.90;;;;;;4915777;29;20516;-82
2023/04/12 02:08:43;;;;;;;13.25;2.33;;;7.70;99.90;;;;;;4916504;29;20482;-80
2023/04/12 02:11:10;;;;;;;8.75;2.08;;;7.70;99.90;;;;;;4900774;29;20047;-82
2023/04/12 02:13:37;;;;;;;21.13;2.55;;;7.70;99.90;;;;;;4900974;29;20044;-80
2023/04/12 02:16:03;;;;;;;18.75;2.08;;;7.70;99.90;;;;;;4900512;29;20045;-82
2023/04/12 02:18:34;;;;;;;11.95;2.47;;;7.70;99.90;;;;;;4900829;29;20135;-81
2023/04/12 02:21:01;;;;;;;15.40;2.17;;;7.70;99.90;;;;;;4915036;29;20057;-81
2023/04/12 02:23:27;;;;;;;23.13;2.15;;;7.60;99.90;;;;;;4916671;29;20055;-81
2023/04/12 02:25:54;;;;;;;15.32;2.35;;;7.60;99.90;;;;;;4916378;29;20379;-82
2023/04/12 02:28:22;;;;;;;15.43;2.05;;;7.60;99.90;;;;;;4899369;29;20049;-82
2023/04/12 02:30:52;;;;;;;18.88;2.35;;;7.60;99.90;;;;;;4900402;29;20045;-80
2023/04/12 02:33:20;;;;;;;22.85;2.80;;;7.60;99.90;;;;;;4915314;29;20088;-82
2023/04/12 02:35:47;;;;;;;22.13;2.75;;;7.50;99.90;;;;;;4900528;29;20074;-81
2023/04/12 02:38:18;;;;;;;10.48;1.88;;;7.50;99.90;;;;;;4915768;29;20104;-81
2023/04/12 02:40:45;;;;;;;13.57;1.60;;;7.50;99.90;;;;;;4913883;29;20479;-82
2023/04/12 02:43:14;;;;;;;11.30;1.85;;;7.50;99.90;;;;;;4885326;29;20092;-82
2023/04/12 02:45:44;;;;;;;18.88;2.20;;;7.50;99.90;;;;;;4885044;29;20049;-81
2023/04/12 02:48:11;;;;;;;16.20;2.20;;;7.50;99.90;;;;;;4899130;29;20041;-82
2023/04/12 02:50:38;;;;;;;10.77;1.92;;;7.40;99.90;;;;;;4884405;29;20041;-80
2023/04/12 02:53:17;;;;;;;17.30;2.47;;;7.40;99.90;;;;;;4898993;29;20055;-81
2023/04/12 02:55:52;;;;;;;16.05;2.40;;;7.40;99.90;;;;;;4900089;29;20053;-81
2023/04/12 02:58:23;;;;;;;17.92;2.22;;;7.40;99.90;;;;;;4899684;29;20372;-82
2023/04/12 03:03:27;;;;;;;19.70;2.85;;;7.30;99.90;;;;;;4840368;23;20079;-83
2023/04/12 03:05:58;;;;;;;17.60;2.55;;;7.30;99.90;;;;;;4916318;29;20048;-81
2023/04/12 03:08:24;;;;;;;10.18;1.90;;;7.30;99.90;;;;;;4902191;29;20068;-80
2023/04/12 03:10:55;;;;;;;11.40;1.92;;;7.30;99.90;;;;;;4920228;29;20044;-81
2023/04/12 03:13:23;;;;;;;15.88;2.28;;;7.20;99.90;;;;;;4903170;29;20048;-81
2023/04/12 03:15:52;;;;;;;15.70;2.28;;;7.20;99.90;;;;;;4902309;29;20056;-81
2023/04/12 03:18:19;;;;;;;12.13;1.75;;;7.20;99.90;;;;;;4903409;29;20092;-82
2023/04/12 03:20:48;;;;;;;14.38;2.22;;;7.20;99.90;;;;;;4903100;29;20075;-81
2023/04/12 03:23:16;;;;;;;11.52;2.15;;;7.20;99.90;;;;;;4901808;29;20048;-81
2023/04/12 03:25:46;;;;;;;11.35;1.67;;;7.20;99.90;;;;;;4903510;29;20040;-83
2023/04/12 03:28:27;;;;;;;14.30;2.00;;;7.10;99.90;;;;;;4902183;29;20044;-82
2023/04/12 03:30:55;;;;;;;15.38;3.50;;;7.10;99.90;;;;;;4887627;29;20056;-81
2023/04/12 03:33:26;;;;;;;8.73;1.87;;;7.00;99.90;;;;;;4902945;29;20044;-82
2023/04/12 03:36:00;;;;;;;17.13;2.85;;;7.00;99.90;;;;;;4887474;29;20358;-82
2023/04/12 03:38:29;;;;;;;9.63;1.85;;;6.90;99.90;;;;;;4902892;29;20064;-81
2023/04/12 03:40:56;;;;;;;8.18;1.88;;;6.90;99.90;;;;;;4903419;29;20040;-80
2023/04/12 03:43:34;;;;;;;10.25;1.65;;;6.90;99.90;;;;;;4887489;29;20390;-81
2023/04/12 03:46:05;;;;;;;23.30;2.60;;;6.80;99.90;;;;;;4902872;29;20040;-83
2023/04/12 03:48:32;;;;;;;12.50;2.13;;;6.80;99.90;;;;;;4902048;29;20399;-82
2023/04/12 03:50:59;;;;;;;10.50;2.15;;;6.80;99.90;;;;;;4902761;29;20048;-82
2023/04/12 03:53:31;;;;;;;5.55;1.23;;;6.70;99.90;;;;;;4902332;29;20055;-80
2023/04/12 03:55:58;;;;;;;8.80;1.67;;;6.70;99.90;;;;;;4886679;29;20095;-80
2023/04/12 03:58:29;;;;;;;8.45;1.55;;;6.60;99.90;;;;;;4887597;29;20054;-82
2023/04/12 04:00:57;;;;;;;7.47;1.45;;;6.60;99.90;;;;;;4918319;29;20450;-82
2023/04/12 04:03:25;;;;;;;12.57;2.08;;;6.60;99.90;;;;;;4915390;29;20048;-80
2023/04/12 04:06:04;;;;;;;7.28;2.13;;;6.60;99.90;;;;;;4918168;29;20059;-81
2023/04/12 04:08:31;;;;;;;15.27;1.58;;;6.50;99.90;;;;;;4916893;29;20044;-82
2023/04/12 04:10:58;;;;;;;35.35;2.20;;;6.50;99.90;;;;;;4917134;29;20044;-80
2023/04/12 04:13:31;;;;;;;16.80;2.22;;;6.50;99.90;;;;;;4917930;29;20078;-82
2023/04/12 04:16:03;;;;;;;13.02;1.85;;;6.40;99.90;;;;;;4917124;29;20052;-80
2023/04/12 04:18:30;;;;;;;12.63;1.70;;;6.30;99.90;;;;;;4917820;29;20067;-81
2023/04/12 04:20:57;;;;;;;7.00;1.92;;;6.20;99.90;;;;;;4917834;29;20070;-80
2023/04/12 04:23:29;;;;;;;10.40;1.60;;;6.20;99.90;;;;;;4916786;29;20127;-80
2023/04/12 04:25:58;;;;;;;10.48;1.73;;;6.20;99.90;;;;;;4917747;29;20115;-80
2023/04/12 04:28:26;;;;;;;13.10;1.88;;;6.10;99.90;;;;;;4917184;29;20036;-82
2023/04/12 04:30:55;;;;;;;12.38;1.65;;;6.10;99.90;;;;;;4917982;29;20044;-82
2023/04/12 04:33:23;;;;;;;6.82;1.10;;;6.10;99.90;;;;;;4917525;29;20052;-82
2023/04/12 04:35:53;;;;;;;15.00;1.60;;;6.00;99.90;;;;;;4916838;29;20152;-82
2023/04/12 04:38:31;;;;;;;10.98;1.65;;;6.00;99.90;;;;;;4917710;29;20052;-81
2023/04/12 04:41:07;;;;;;;10.63;1.55;;;6.00;99.90;;;;;;4917497;29;20060;-81
2023/04/12 04:43:50;;;;;;;14.82;1.83;;;6.00;99.90;;;;;;4917186;29;20150;-81
2023/04/12 04:46:20;;;;;;;9.82;1.35;;;5.90;99.90;;;;;;4917627;29;20055;-81
2023/04/12 04:48:48;;;;;;;7.53;1.55;;;5.90;99.90;;;;;;4916634;29;20163;-81
2023/04/12 04:51:14;;;;;;;7.28;1.60;;;5.80;99.90;;;;;;4917554;29;20135;-82
2023/04/12 04:53:43;;;;;;;5.93;1.55;;;5.80;99.90;;;;;;4901542;29;20055;-81
2023/04/12 04:56:12;;;;;;;12.90;2.17;;;5.70;99.90;;;;;;4916559;29;20140;-80
2023/04/12 04:58:40;;;;;;;9.98;1.60;;;5.70;99.90;;;;;;4912434;29;20064;-80
2023/04/12 05:01:06;;;;;;;14.40;1.42;;;5.70;99.90;;;;;;4883234;29;20048;-80
2023/04/12 05:03:34;;;;;;;9.82;1.58;;;5.60;99.90;;;;;;4896536;29;20079;-82
2023/04/12 05:06:02;;;;;;;8.60;1.63;;;5.60;99.90;;;;;;4898687;29;20467;-82
2023/04/12 05:08:30;;;;;;;11.18;1.40;;;5.60;99.90;;;;;;4897559;29;20037;-81
2023/04/12 05:10:57;;;;;;;10.98;2.10;;;5.60;99.90;;;;;;4898413;29;20060;-82
2023/04/12 05:13:27;;;;;;;10.02;1.88;;;5.50;99.90;;;;;;4882776;29;20396;-82
2023/04/12 05:15:54;;;;;;;6.70;1.58;;;5.50;99.90;;;;;;4897444;29;20514;-82
2023/04/12 05:18:21;;;;;;;14.95;1.95;;;5.50;99.90;;;;;;4898097;29;20442;-80
2023/04/12 05:20:48;;;;;;;15.95;2.17;;;5.50;99.90;;;;;;4883650;29;20379;-82
2023/04/12 05:23:16;;;;;;;6.95;1.50;;;5.50;99.90;;;;;;4885565;29;20100;-83
2023/04/12 05:25:43;;;;;;;20.70;1.60;;;5.40;99.90;;;;;;4903270;29;20352;-82
2023/04/12 05:28:12;;;;;;;6.60;1.40;;;5.40;99.90;;;;;;4901641;29;20040;-82
2023/04/12 05:30:40;;;;;;;10.00;1.60;;;5.40;99.90;;;;;;4902137;29;20383;-81
2023/04/12 05:33:09;;;;;;;11.32;1.73;;;5.40;99.90;;;;;;4901778;29;20045;-81
2023/04/12 05:35:41;;;;;;;3.63;1.15;;;5.40;99.90;;;;;;4901078;29;20110;-81
2023/04/12 05:38:10;;;;;;;17.48;1.40;;;5.40;99.90;;;;;;4886239;29;20049;-81
2023/04/12 05:40:37;;;;;;;9.70;1.60;;;5.40;99.90;;;;;;4886214;29;20045;-82
2023/04/12 05:43:11;;;;;;;25.00;1.55;;;5.40;99.90;;;;;;4885095;29;20105;-82
2023/04/12 05:45:38;;;;;;;9.05;1.70;;;5.40;99.90;;;;;;4886042;29;20171;-83
2023/04/12 05:48:05;;;;;;;10.48;1.50;;;5.50;99.90;;;;;;4902164;29;20045;-81
2023/04/12 05:50:33;;;;;;;13.15;1.60;;;5.50;99.90;;;;;;4901870;29;20431;-81
2023/04/12 05:53:02;;;;;;;11.85;1.75;;;5.60;99.90;;;;;;4885860;29;20411;-82
2023/04/12 05:55:31;;;;;;;8.27;1.60;;;5.60;99.90;;;;;;4901318;29;20075;-82
2023/04/12 05:58:00;;;;;;;22.40;1.52;;;5.70;99.90;;;;;;4934225;29;20129;-81
2023/04/12 06:00:27;;;;;;;5.80;1.08;;;5.80;99.90;;;;;;4904936;29;20443;-81
2023/04/12 06:03:09;;;;;;;;;;;;;;;;;;;;;
2023/04/12 06:05:38;;;;;;;6.90;1.83;;;6.10;99.90;;;;;;4904558;29;20139;-82
2023/04/12 06:08:05;;;;;;;13.18;1.63;;;6.20;99.90;;;;;;4920510;29;20036;-81
2023/04/12 06:10:32;;;;;;;8.90;1.63;;;6.30;99.90;;;;;;4920557;29;20036;-82
2023/04/12 06:13:02;;;;;;;16.45;1.70;;;6.50;99.90;;;;;;4919940;29;20072;-82
2023/04/12 06:15:32;;;;;;;11.27;2.22;;;6.60;99.90;;;;;;4904044;29;20063;-82
2023/04/12 06:17:59;;;;;;;9.10;1.90;;;6.70;99.90;;;;;;4904495;29;20115;-81
2023/04/12 06:20:26;;;;;;;13.40;1.15;;;6.80;99.90;;;;;;4920910;29;20419;-82
2023/04/12 06:22:54;;;;;;;9.65;1.52;;;7.00;99.90;;;;;;4903288;29;20048;-82
2023/04/12 06:25:21;;;;;;;12.57;2.35;;;7.00;99.90;;;;;;4919997;29;20044;-81
2023/04/12 06:27:52;;;;;;;6.75;1.73;;;7.10;99.90;;;;;;4920635;29;20048;-81
2023/04/12 06:30:22;;;;;;;10.17;1.77;;;7.10;99.90;;;;;;4919915;29;20048;-82
2023/04/12 06:32:56;;;;;;;5.95;1.55;;;7.20;99.90;;;;;;4923453;29;20036;-81
2023/04/12 06:35:23;;;;;;;16.13;1.80;;;7.20;99.90;;;;;;4904071;29;20107;-82
2023/04/12 06:37:51;;;;;;;15.40;2.13;;;7.20;99.90;;;;;;4919909;29;20040;-81
2023/04/12 06:40:18;;;;;;;14.02;1.38;;;7.20;99.90;;;;;;4920453;29;20048;-82
2023/04/12 06:42:46;;;;;;;7.00;1.55;;;7.30;99.90;;;;;;4902395;29;20044;-83
2023/04/12 06:45:20;;;;;;;14.40;1.75;;;7.30;99.90;;;;;;4903897;29;20048;-81
2023/04/12 06:47:46;;;;;;;11.35;1.40;;;7.30;99.90;;;;;;4910925;29;20044;-80
2023/04/12 06:50:13;;;;;;;11.75;2.10;;;7.40;99.90;;;;;;4918330;29;20044;-81
2023/04/12 06:52:41;;;;;;;9.73;1.55;;;7.40;99.90;;;;;;4918936;29;20044;-80
2023/04/12 06:55:07;;;;;;;12.13;1.98;;;7.50;99.90;;;;;;4918627;29;20052;-83
2023/04/12 06:57:34;;;;;;;10.40;1.40;;;7.50;99.90;;;;;;4911497;29;20044;-83
2023/04/12 07:00:01;;;;;;;13.98;2.08;;;7.40;99.90;;;;;;4920133;29;20501;-81
2023/04/12 07:02:28;;;;;;;11.10;1.70;;;7.50;99.90;;;;;;4931870;29;20040;-81
2023/04/12 07:04:54;;;;;;;5.20;1.40;;;7.40;99.90;;;;;;4938714;29;20426;-81
2023/04/12 07:07:21;;;;;;;9.13;1.77;;;7.50;99.90;;;;;;4922367;29;20382;-81
2023/04/12 07:09:47;;;;;;;14.48;2.05;;;7.50;99.90;;;;;;4921374;29;20040;-82
2023/04/12 07:12:15;;;;;;;15.45;1.70;;;7.50;99.90;;;;;;4932058;29;20047;-81
2023/04/12 07:14:41;;;;;;;13.00;1.63;;;7.50;99.90;;;;;;4921490;29;20043;-81
2023/04/12 07:17:10;;;;;;;6.78;1.73;;;7.70;99.90;;;;;;4911393;29;20083;-82
2023/04/12 07:19:37;;;;;;;9.32;1.60;;;7.70;99.90;;;;;;4903312;29;20040;-81
2023/04/12 07:22:03;;;;;;;10.00;1.90;;;7.80;99.90;;;;;;4918633;29;20048;-82
2023/04/12 07:24:30;;;;;;;7.82;1.70;;;8.00;99.90;;;;;;4919494;29;20091;-82
2023/04/12 07:26:57;;;;;;;5.32;1.25;;;8.10;99.90;;;;;;4912101;29;20481;-80
2023/04/12 07:29:23;;;;;;;10.80;1.98;;;8.10;99.90;;;;;;4937749;29;20348;-83
2023/04/12 07:31:50;;;;;;;11.07;1.50;;;8.10;99.90;;;;;;4938117;29;20355;-82
2023/04/12 07:34:17;;;;;;;6.03;1.50;;;8.10;99.90;;;;;;4922230;29;20044;-81
2023/04/12 07:36:44;;;;;;;12.07;1.63;;;8.30;99.90;;;;;;4937657;29;20071;-82
2023/04/12 07:39:11;;;;;;;9.93;1.70;;;8.40;99.90;;;;;;4920292;29;20406;-81
2023/04/12 07:41:38;;;;;;;9.60;1.73;;;8.40;99.90;;;;;;4900799;29;20048;-83
2023/04/12 07:44:08;;;;;;;12.57;1.60;;;8.40;99.90;;;;;;4902595;29;20115;-83
2023/04/12 07:46:37;;;;;;;8.63;1.83;;;8.40;99.90;;;;;;4903046;29;20051;-85
2023/04/12 07:49:06;;;;;;;10.65;2.47;;;8.50;99.90;;;;;;4901798;29;20036;-85
2023/04/12 07:51:36;;;;;;;10.10;2.00;;;8.70;99.90;;;;;;4903050;29;20371;-84
2023/04/12 07:54:07;;;;;;;8.40;1.58;;;8.80;99.90;;;;;;4902816;29;20044;-84
2023/04/12 07:56:34;;;;;;;13.52;2.15;;;8.90;99.90;;;;;;4902247;29;20044;-85
2023/04/12 07:59:12;;;;;;;8.57;1.65;;;9.00;99.90;;;;;;4904501;29;20104;-82
2023/04/12 08:01:42;;;;;;;14.18;1.65;;;9.10;99.90;;;;;;4901649;29;20044;-86
2023/04/12 08:04:09;;;;;;;8.48;1.80;;;9.10;99.90;;;;;;4899459;29;20057;-83
2023/04/12 08:06:36;;;;;;;8.13;1.42;;;9.20;99.90;;;;;;4900476;29;20044;-87
2023/04/12 08:09:03;;;;;;;16.60;2.10;;;9.20;99.90;;;;;;4899261;29;20044;-86
2023/04/12 08:11:34;;;;;;;13.73;1.60;;;9.30;99.90;;;;;;4899205;29;20051;-84
2023/04/12 08:14:01;;;;;;;11.07;2.17;;;9.40;99.90;;;;;;4899003;29;20124;-84
2023/04/12 08:16:28;;;;;;;12.15;1.70;;;9.50;99.90;;;;;;4898196;29;20063;-85
2023/04/12 08:18:54;;;;;;;12.07;1.60;;;9.60;99.90;;;;;;4900152;29;20353;-86
2023/04/12 08:21:24;;;;;;;12.57;1.85;;;9.50;99.90;;;;;;4897729;29;20044;-85
2023/04/12 08:23:51;;;;;;;11.13;1.55;;;9.60;99.90;;;;;;4900480;29;20044;-81
2023/04/12 08:26:21;;;;;;;13.25;1.90;;;9.70;99.90;;;;;;4899913;29;20131;-84
2023/04/12 08:28:48;;;;;;;6.03;1.40;;;9.80;99.90;;;;;;4898959;29;20053;-84
2023/04/12 08:31:15;;;;;;;12.40;2.20;;;9.80;99.90;;;;;;4898900;29;20060;-84
2023/04/12 08:33:45;;;;;;;8.23;1.50;;;9.90;99.90;;;;;;4899675;29;20143;-83
2023/04/12 08:36:21;;;;;;;11.52;1.80;;;9.90;99.90;;;;;;4900206;29;20052;-82
2023/04/12 08:38:51;;;;;;;15.50;1.75;;;10.10;99.90;;;;;;4900608;29;20040;-82
2023/04/12 08:41:20;;;;;;;10.20;2.05;;;10.10;99.90;;;;;;4897823;29;20068;-85
2023/04/12 08:43:47;;;;;;;6.43;1.40;;;10.10;99.90;;;;;;4884006;29;20056;-86
2023/04/12 08:46:15;;;;;;;6.40;1.60;;;10.00;99.90;;;;;;4899452;29;20044;-82
2023/04/12 08:48:45;;;;;;;6.38;1.60;;;10.20;99.90;;;;;;4893461;29;20044;-83
2023/04/12 08:51:12;;;;;;;11.52;1.63;;;10.20;99.90;;;;;;4898978;29;20433;-80
2023/04/12 08:53:42;;;;;;;11.23;1.58;;;10.30;99.90;;;;;;4899187;29;20037;-80
2023/04/12 08:56:10;;;;;;;9.27;1.63;;;10.30;99.90;;;;;;4896592;29;20060;-81
2023/04/12 08:58:40;;;;;;;12.98;1.70;;;10.30;99.90;;;;;;4898747;29;20055;-82
2023/04/12 09:01:07;;;;;;;12.93;1.55;;;10.20;99.90;;;;;;4898149;29;20041;-83
2023/04/12 09:03:37;;;;;;;5.72;1.30;;;10.10;99.90;;;;;;4913440;29;20045;-82
2023/04/12 09:06:10;;;;;;;10.32;1.80;;;9.80;99.90;;;;;;4900325;29;20386;-81
2023/04/12 09:08:37;;;;;;;10.18;1.48;;;9.30;99.90;;;;;;4915878;29;20041;-80
2023/04/12 09:11:06;;;;;;;8.57;1.52;;;8.50;99.90;;;;;;4916879;29;20447;-81
2023/04/12 09:13:34;;;;;;;3.90;1.25;;;7.80;99.90;;;;;;4917297;29;20058;-80
2023/04/12 09:16:04;;;;;;;4.60;1.00;;;7.20;99.90;;;;;;4917252;29;20044;-81
2023/04/12 09:18:31;;;;;;;3.20;1.10;;;7.00;99.90;;;;;;4918188;29;20052;-82
2023/04/12 09:20:58;;;;;;;3.72;0.93;;;7.10;99.90;;;;;;4916935;29;20071;-80
2023/04/12 09:23:28;;;;;;;5.40;1.42;;;7.30;99.90;;;;;;4915505;29;20090;-80
2023/04/12 09:25:57;;;;;;;1.88;0.90;;;7.50;99.90;;;;;;4917983;29;20043;-82
2023/04/12 09:28:24;;;;;;;2.83;0.80;;;7.60;99.90;;;;;;4917034;29;20131;-82
2023/04/12 09:30:52;;;;;;;2.22;0.80;;;7.90;99.90;;;;;;4917229;29;20112;-84
2023/04/12 09:33:18;;;;;;;6.50;0.90;;;8.20;99.90;;;;;;4916310;29;20048;-82
2023/04/12 09:35:48;;;;;;;1.65;1.00;;;8.40;99.90;;;;;;4916694;29;20044;-83
2023/04/12 09:38:17;;;;;;;3.03;0.90;;;8.70;99.90;;;;;;4916903;29;20064;-81
2023/04/12 09:40:47;;;;;;;2.33;0.80;;;8.80;99.90;;;;;;4917019;29;20048;-83
2023/04/12 09:43:17;;;;;;;2.33;1.10;;;8.90;99.90;;;;;;4915140;29;20557;-82
2023/04/12 09:45:47;;;;;;;5.10;1.13;;;8.90;99.90;;;;;;4916927;29;20040;-84
2023/04/12 09:48:14;;;;;;;2.75;1.10;;;8.90;99.90;;;;;;4915361;29;20087;-82
2023/04/12 09:50:41;;;;;;;2.92;1.00;;;9.00;99.90;;;;;;4916931;29;20044;-83
2023/04/12 09:53:07;;;;;;;2.22;0.80;;;9.00;99.90;;;;;;4916579;29;20044;-85
2023/04/12 09:55:39;;;;;;;2.80;1.10;;;9.10;99.90;;;;;;4915916;29;20115;-82
2023/04/12 09:58:06;;;;;;;5.45;1.02;;;9.20;99.90;;;;;;4917484;29;20123;-81
2023/04/12 10:00:37;;;;;;;5.78;1.02;;;9.50;99.90;;;;;;4917290;29;20048;-81
2023/04/12 10:03:05;;;;;;;10.50;1.70;;;9.60;99.90;;;;;;4916354;29;20047;-85
2023/04/12 10:05:34;;;;;;;2.63;1.00;;;9.60;99.90;;;;;;4916603;29;20067;-82
2023/04/12 10:08:03;;;;;;;5.30;1.30;;;9.70;99.90;;;;;;4917029;29;20044;-80
2023/04/12 10:10:33;;;;;;;4.72;1.27;;;9.80;99.90;;;;;;4919734;29;20068;-82
2023/04/12 10:13:04;;;;;;;5.85;1.30;;;10.00;99.90;;;;;;4919642;29;20139;-84
2023/04/12 10:15:32;;;;;;;4.05;1.20;;;10.20;99.90;;;;;;4919310;29;20071;-85
2023/04/12 10:18:02;;;;;;;5.38;1.23;;;10.40;99.90;;;;;;4919848;29;20071;-81
2023/04/12 10:20:33;;;;;;;4.88;1.13;;;10.60;99.90;;;;;;4903858;29;20483;-81
2023/04/12 10:23:04;;;;;;;4.95;1.20;;;10.80;99.90;;;;;;4902516;29;20066;-84
2023/04/12 10:25:36;;;;;;;6.65;1.65;;;11.00;99.90;;;;;;4904664;29;20131;-84
2023/04/12 10:28:03;;;;;;;4.82;1.17;;;11.30;99.90;;;;;;4919866;29;20135;-86
2023/04/12 10:30:30;;;;;;;7.88;1.25;;;11.80;99.90;;;;;;4903920;29;20062;-84
2023/04/12 10:32:56;;;;;;;5.82;1.30;;;11.80;99.90;;;;;;4903022;29;20488;-85
2023/04/12 10:35:23;;;;;;;3.50;1.00;;;11.60;99.90;;;;;;4902708;29;20115;-82
2023/04/12 10:37:50;;;;;;;9.77;1.00;;;11.20;99.90;;;;;;4904052;29;20048;-84
2023/04/12 10:40:18;;;;;;;5.63;1.13;;;10.90;99.90;;;;;;4903880;29;20060;-83
2023/04/12 10:42:44;;;;;;;9.50;1.40;;;10.70;99.90;;;;;;4902530;29;20052;-86
2023/04/12 10:45:12;;;;;;;9.75;1.48;;;11.30;99.90;;;;;;4903950;29;20044;-84
2023/04/12 10:47:39;;;;;;;5.03;1.38;;;11.80;99.90;;;;;;4903805;29;20063;-82
2023/04/12 10:50:06;;;;;;;6.18;1.40;;;12.20;99.90;;;;;;4903189;29;20037;-86
2023/04/12 10:52:34;;;;;;;8.70;1.40;;;12.50;99.90;;;;;;4920590;29;20045;-85
2023/04/12 10:55:00;;;;;;;17.75;2.10;;;12.80;99.90;;;;;;4920041;29;20439;-80
2023/04/12 10:57:27;;;;;;;7.10;1.75;;;13.00;99.90;;;;;;4920782;29;20115;-85
2023/04/12 10:59:55;;;;;;;7.75;1.30;;;13.10;99.90;;;;;;4903449;29;20459;-83
2023/04/12 11:02:23;;;;;;;7.55;1.33;;;13.20;99.90;;;;;;4918755;29;20048;-86
2023/04/12 11:04:55;;;;;;;8.57;1.55;;;13.10;99.90;;;;;;4918837;29;20048;-85
2023/04/12 11:07:42;;;;;;;5.40;1.33;;;13.50;99.90;;;;;;4920183;29;20047;-83
2023/04/12 11:10:37;;;;;;;10.80;1.70;;;13.50;99.90;;;;;;4919648;29;20045;-85
2023/04/12 11:13:06;;;;;;;5.95;1.52;;;13.70;99.90;;;;;;4918653;29;20394;-82
2023/04/12 11:15:33;;;;;;;6.93;1.27;;;14.00;99.90;;;;;;4918313;29;20040;-86
2023/04/12 11:17:59;;;;;;;8.73;1.55;;;14.20;95.10;;;;;;4919339;29;20052;-87
2023/04/12 11:20:26;;;;;;;10.98;1.40;;;14.10;93.90;;;;;;4918774;29;20154;-84
2023/04/12 11:25:39;;;;;;;7.63;1.40;;;14.20;91.10;;;;;;4903112;29;20103;-85
2023/04/12 11:28:05;;;;;;;9.52;1.63;;;14.10;90.20;;;;;;4919492;29;20123;-85
2023/04/12 11:30:50;;;;;;;5.65;1.25;;;14.30;88.80;;;;;;4905909;29;20481;-82
2023/04/12 11:33:17;;;;;;;7.97;1.45;;;13.80;85.50;;;;;;4902683;29;20482;-85
2023/04/12 11:35:44;;;;;;;12.32;1.63;;;13.50;88.90;;;;;;4902114;29;20059;-84
2023/04/12 11:38:11;;;;;;;7.38;1.27;;;13.50;90.90;;;;;;4887616;29;20559;-82
2023/04/12 11:40:37;;;;;;;7.40;1.75;;;13.20;90.20;;;;;;4897716;29;20056;-83
2023/04/12 11:43:07;;;;;;;4.25;1.25;;;13.40;91.40;;;;;;4897233;29;20040;-85
2023/04/12 11:45:35;;;;;;;7.10;1.35;;;13.00;92.10;;;;;;4902875;29;20040;-81
2023/04/12 11:48:02;;;;;;;9.35;2.00;;;12.80;92.70;;;;;;4895389;29;20055;-85
2023/04/12 11:50:29;;;;;;;7.70;1.83;;;13.40;95.00;;;;;;4902226;29;20526;-84
2023/04/12 11:52:57;;;;;;;14.13;1.50;;;13.80;92.30;;;;;;4902768;29;20052;-84
2023/04/12 11:55:24;;;;;;;7.75;2.15;;;14.10;90.40;;;;;;4918582;29;20048;-82
2023/04/12 11:57:51;;;;;;;9.10;2.03;;;14.20;91.50;;;;;;4918624;29;20375;-82
2023/04/12 12:00:17;;;;;;;7.50;1.55;;;14.20;92.50;;;;;;4918950;29;20050;-81
2023/04/12 12:02:44;;;;;;;9.35;1.20;;;14.30;93.60;;;;;;4917870;29;20052;-85
2023/04/12 12:05:35;;;;;;;6.32;1.50;;;14.70;93.10;;;;;;4919332;29;20067;-84
2023/04/12 12:08:06;;;;;;;5.95;1.30;;;14.70;91.20;;;;;;4918352;29;20044;-83
2023/04/12 12:10:32;;;;;;;14.32;2.05;;;15.10;92.60;;;;;;4886741;29;20047;-85
2023/04/12 12:13:04;;;;;;;11.97;1.70;;;14.90;91.10;;;;;;4902923;29;20044;-85
2023/04/12 12:15:30;;;;;;;10.65;1.65;;;15.30;91.90;;;;;;4901773;29;20047;-86
2023/04/12 12:17:57;;;;;;;15.77;2.00;;;15.00;91.30;;;;;;4918876;29;20044;-83
2023/04/12 12:20:25;;;;;;;7.90;1.90;;;13.80;91.70;;;;;;4901985;29;20544;-83
2023/04/12 12:22:52;;;;;;;13.10;2.03;;;12.80;96.80;;;;;;4900328;29;20063;-85
2023/04/12 12:25:18;;;;;;;12.80;1.83;;;12.00;99.90;;;;;;4908655;29;20044;-82
2023/04/12 12:27:50;;;;;;;8.85;1.50;;;11.50;99.90;;;;;;4901953;29;20479;-84
2023/04/12 12:30:16;;;;;;;18.45;1.80;;;10.20;99.90;;;;;;4909122;29;20052;-81
2023/04/12 12:32:43;;;;;;;7.65;1.52;;;9.00;99.90;;;;;;4937298;29;20047;-83
2023/04/12 12:35:10;;;;;;;14.77;2.05;;;8.10;99.90;;;;;;4920288;29;20047;-83
2023/04/12 12:37:37;;;;;;;10.88;2.15;;;7.60;99.90;;;;;;4920493;29;20135;-84
2023/04/12 12:40:10;;;;;;;7.40;1.70;;;7.70;99.90;;;;;;4937360;29;20098;-82
2023/04/12 12:42:38;;;;;;;8.73;1.60;;;8.20;99.90;;;;;;4919080;29;20402;-83
2023/04/12 12:45:05;;;;;;;9.75;1.58;;;9.00;99.90;;;;;;4905129;29;20044;-85
2023/04/12 12:47:32;;;;;;;16.10;1.80;;;9.70;99.90;;;;;;4900623;29;20181;-83
2023/04/12 12:49:58;;;;;;;22.05;2.00;;;10.20;99.90;;;;;;4916978;29;20040;-87
2023/04/12 12:52:25;;;;;;;9.07;2.05;;;10.70;99.90;;;;;;4886004;29;20055;-86
2023/04/12 12:54:52;;;;;;;12.48;2.08;;;11.00;99.90;;;;;;4900771;29;20108;-88
2023/04/12 12:57:18;;;;;;;12.88;1.92;;;11.40;99.90;;;;;;4918202;29;20452;-87
2023/04/12 12:59:45;;;;;;;7.85;1.85;;;11.80;99.90;;;;;;4901241;29;20103;-82
2023/04/12 13:02:14;;;;;;;7.95;1.83;;;11.80;99.90;;;;;;4915079;29;20055;-83